Wilmington, OH

8:25 AM EDT on August 26, 2016 (GMT -0400)
2.2 N Wilmington | | Change Station
Active Advisory: Special Statement

Elev 1053 ft 39.47 °N, 83.84 °W | Updated 3 minutes ago

Partly Cloudy
Partly Cloudy
72.8 °F
Feels Like 72.8 °F
N
0.0
Wind Variable Wind from WSW
Gusts 0.0 mph

Today
High -- | Low -- °F
--% Chance of Precip.
Yesterday
High -- | Low -- °F
Precip. -- in
Pressure 30.15 in
Visibility 2.5 miles
Clouds Few 100 ft
Dew Point 72 °F
Humidity 97%
Rainfall 0.00 in
Snow Depth Not available.
6:58 AM 8:14 PM
Waning Crescent, 35% visible
SPECI KILN 261214Z AUTO 00000KT 2 1/2SM BR FEW001 23/22 A3015 RMK AO2 T02330222
Pressure 30.15 in
Visibility 2.5 miles
Clouds Few 100 ft
Dew Point 72 °F
Humidity 97%
Rainfall 0.00 in
Snow Depth Not available.
6:58 AM 8:14 PM
Waning Crescent, 35% visible
SPECI KILN 261214Z AUTO 00000KT 2 1/2SM BR FEW001 23/22 A3015 RMK AO2 T02330222

10-Day Weather Forecast

Almanac

Astronomy

Aug. 26, 2016 Rise Set
Actual Time
Civil Twilight
Nautical Twilight
Astronomical Twilight
Moon
Length of Visible Light
Length of Day
Tomorrow will be .
, % of the Moon is Illuminated

Today's Extremes

State Highs State Lows

Community

WunderPhotos

Upload Photos

1,935,080 photos uploaded!

WunderBlog® & News

Nearby

Air Quality

  Air Quality AQ Index Pollutant
Not available.

Snow Depth

Station Depth Elevation

Earthquake Activity

City Distance Mag. Time & Date
Minimum magnitude displayed is 2.5.

Coastal Water Temperatures

Place Temperature

Stations

Nearby Weather Stations

Station Location Temp. Windchill Dew Point Humidity Wind Precip. Elev Updated Type
                   

Watches & Warnings

Special Statement
Issued: 6:12 AM EDT Aug. 26, 2016 – National Weather Service

... Warm and humid conditions to continue today...

Temperatures in the upper 80s to around 90 degrees will combine
with high humidities to produce heat indices in the mid and upper
90s this afternoon.

If possible... spend more time in air conditioned or well
ventilated places this afternoon. If you will be outside... wear
light weight and loose fitting clothing and drink plenty of water.


AR

612 am EDT Fri Aug 26 2016

... Warm and humid conditions to continue today...

Temperatures in the upper 80s to around 90 degrees will combine
with high humidities to produce heat indices in the mid and upper
90s this afternoon.

If possible... spend more time in air conditioned or well
ventilated places this afternoon. If you will be outside... wear
light weight and loose fitting clothing and drink plenty of water.


AR


612 am EDT Fri Aug 26 2016

... Patchy dense fog to affect the morning commute...

Patchy dense fog will reduce visibility to a quarter mile or less
in some spots early this morning. The fog will form mainly in low
lying rural areas, such as river valleys. Motorists are advised to
exercise caution when encountering the rapidly changing
visibilities. The fog will burn off by mid morning as
temperatures rise quickly into the 80s.